YMLT Airport Information

Runway Information
Runway 14L Length 2297 ft width 60 ft
Elevation 535 ft Threshold 0 ft Heading 147
Runway 32R Length 2297 ft Width 60 ft
Elevation 545 ft Threshold 0 ft Heading 327
Runway 14R Length 6499 ft width 148 ft
Elevation 560 ft Threshold 0 ft Heading 146
Runway 32L Length 6499 ft Width 148 ft
Elevation 548 ft Threshold 0 ft Heading 326
Runway 18 Length 2264 ft width 60 ft
Elevation 0 ft Threshold 0 ft Heading 196
Runway 36 Length 2264 ft Width 60 ft
Elevation 0 ft Threshold 0 ft Heading 16
Airport Frequencies
Type ATIS Name ATIS Frequency 112.6 MHZ
Type CTAF Name CTAF Frequency 118.7 MHZ
Type FSS Name MELBOURNE Frequency 126.5 MHZ
Type TWR Name TWR Frequency 118.7 MHZ
Airport Navaids
Type VOR-DME Name Launceston Frequency 112600 KHZ
Type NDB Name Launceston Frequency 242 KHZ
Type NDB Name Nile Frequency 230 KHZ
Airport Weather Information & NOTAM
ADDS - METARS form results

(0013 UTC 16 April 2021)
Data provider http://aviationweather.gov/metar/data/
 
METAR text: YMLT 160000Z AUTO 33007KT 9999 // NCD 10/01 Q1020 RF00.0/000.0
Conditions at: YMLT (LAUNCESTON AIRPO, AU) observed 0000 UTC 16 April 2021
Temperature: 10.0°C (50°F)
Dewpoint: 1.0°C (34°F) [RH = 53%]
Pressure (altimeter): 30.12 inches Hg (1020.0 mb)
Winds: from the NNW (330 degrees) at 8 MPH (7 knots; 3.6 m/s)
Visibility: 6 or more miles (10+ km)
Ceiling: at least 12,000 feet AGL
Clouds: sky clear below 12,000 feet AGL
Weather: no significant weather observed at this time

METAR text: YMLT 152330Z AUTO 01007KT 9999 // NCD 08/03 Q1020 RF00.0/000.0
Conditions at: YMLT (LAUNCESTON AIRPO, AU) observed 2330 UTC 15 April 2021
Temperature: 8.0°C (46°F)
Dewpoint: 3.0°C (37°F) [RH = 71%]
Pressure (altimeter): 30.12 inches Hg (1020.0 mb)
Winds: from the N (10 degrees) at 8 MPH (7 knots; 3.6 m/s)
Visibility: 6 or more miles (10+ km)
Ceiling: at least 12,000 feet AGL
Clouds: sky clear below 12,000 feet AGL
Weather: no significant weather observed at this time

Forecast for: YMLT (LAUNCESTON AIRPO, AU)
Text: TAF YMLT 152337Z 1600/1700 34006KT 9999 FEW040
Forecast period: 0000 UTC 16 April 2021 to 0000 UTC 17 April 2021
Forecast type: FROM: standard forecast or significant change
Winds: from the NNW (340 degrees) at 7 MPH (6 knots; 3.1 m/s)
Visibility: 6 or more miles (10+ km)
Ceiling: at least 12,000 feet AGL
Clouds: few clouds at 4000 feet AGL
Weather: no significant weather forecast for this period